Time;durP1;ratioP1;P1;durP2;ratioP2;P2;SDS_P1;SDS_P2;PMS_P1;PMS_P2;Temp;Humidity;BMP_temperature;BMP_pressure;BME280_temperature;BME280_humidity;BME280_pressure;Samples;Min_cycle;Max_cycle;Signal;HPM_P1;HPM_P2
2023/04/03 00:00:41;;;;;;;9.53;5.43;;;7.50;99.90;;;;;;4157991;28;20482;-61
2023/04/03 00:02:42;;;;;;;8.60;5.60;;;7.50;99.90;;;;;;4161864;28;20030;-68
2023/04/03 00:04:43;;;;;;;8.27;5.57;;;7.40;99.90;;;;;;4161538;28;20053;-62
2023/04/03 00:06:44;;;;;;;7.93;5.03;;;7.50;99.90;;;;;;4157907;28;20115;-62
2023/04/03 00:08:46;;;;;;;6.77;4.60;;;7.50;99.90;;;;;;4146016;28;20038;-62
2023/04/03 00:10:47;;;;;;;7.10;4.57;;;7.40;99.90;;;;;;4146798;28;20033;-61
2023/04/03 00:12:48;;;;;;;5.97;3.90;;;7.40;99.90;;;;;;4162463;28;20091;-61
2023/04/03 00:14:49;;;;;;;6.63;4.30;;;7.40;99.90;;;;;;4157257;28;20099;-68
2023/04/03 00:16:50;;;;;;;4.23;3.30;;;7.40;99.90;;;;;;4147815;28;20360;-62
2023/04/03 00:18:51;;;;;;;5.53;3.97;;;7.40;99.90;;;;;;4154676;28;20089;-64
2023/04/03 00:20:53;;;;;;;6.20;3.63;;;7.40;99.90;;;;;;4146431;28;20042;-62
2023/04/03 00:22:54;;;;;;;4.10;3.33;;;7.40;99.90;;;;;;4145316;28;20037;-62
2023/04/03 00:24:56;;;;;;;4.13;3.13;;;7.40;99.90;;;;;;4146727;28;20449;-61
2023/04/03 00:26:57;;;;;;;4.87;3.10;;;7.40;99.90;;;;;;4145267;28;20080;-62
2023/04/03 00:28:58;;;;;;;4.03;2.57;;;7.40;99.90;;;;;;4147506;28;20560;-61
2023/04/03 00:30:59;;;;;;;3.43;2.53;;;7.40;99.90;;;;;;4145092;28;20359;-62
2023/04/03 00:33:00;;;;;;;3.83;2.37;;;7.40;99.90;;;;;;4146719;28;20037;-63
2023/04/03 00:35:02;;;;;;;2.73;2.07;;;7.40;99.90;;;;;;4145155;28;20056;-66
2023/04/03 00:37:03;;;;;;;3.90;2.33;;;7.40;99.90;;;;;;4145998;28;20029;-67
2023/04/03 00:39:04;;;;;;;4.13;2.27;;;7.40;99.90;;;;;;4145751;28;20034;-62
2023/04/03 00:41:06;;;;;;;2.97;2.20;;;7.40;99.90;;;;;;4145188;28;20034;-62
2023/04/03 00:43:17;;;;;;;2.53;2.30;;;7.40;99.90;;;;;;4161148;28;20083;-63
2023/04/03 00:45:46;;;;;;;7.03;2.47;;;7.40;99.90;;;;;;4161047;28;20050;-63
2023/04/03 00:47:47;;;;;;;2.03;1.70;;;7.40;99.90;;;;;;4159109;28;20041;-66
2023/04/03 00:49:50;;;;;;;3.67;2.00;;;7.40;99.90;;;;;;4156571;28;20026;-62
2023/04/03 00:51:52;;;;;;;3.40;2.83;;;7.40;99.90;;;;;;4145884;28;20025;-61
2023/04/03 00:54:02;;;;;;;3.27;1.87;;;7.40;99.90;;;;;;4145736;28;20022;-62
2023/04/03 00:56:09;;;;;;;2.78;1.92;;;7.40;99.90;;;;;;4155141;28;20038;-62
2023/04/03 00:58:12;;;;;;;2.23;1.93;;;7.30;99.90;;;;;;4144395;28;20042;-62
2023/04/03 01:00:17;;;;;;;2.33;1.77;;;7.40;99.90;;;;;;4146111;28;21319;-62
2023/04/03 01:02:18;;;;;;;3.30;1.60;;;7.40;99.90;;;;;;4146991;28;20022;-61
2023/04/03 01:04:39;;;;;;;3.13;2.13;;;7.40;99.90;;;;;;4142456;28;20058;-62
2023/04/03 01:06:40;;;;;;;2.70;1.77;;;7.30;99.90;;;;;;4154910;28;20410;-62
2023/04/03 01:08:42;;;;;;;3.33;2.13;;;7.30;99.90;;;;;;4160091;28;20104;-62
2023/04/03 01:10:43;;;;;;;2.67;2.10;;;7.30;99.90;;;;;;4146508;28;20133;-62
2023/04/03 01:12:47;;;;;;;2.60;1.97;;;7.30;99.90;;;;;;4148215;28;20033;-62
2023/04/03 01:14:52;;;;;;;2.43;2.00;;;7.20;99.90;;;;;;4158985;28;20095;-63
2023/04/03 01:16:54;;;;;;;3.73;2.13;;;7.20;99.90;;;;;;4162005;28;20034;-61
2023/04/03 01:18:55;;;;;;;3.00;1.80;;;7.10;99.90;;;;;;4155073;28;20474;-62
2023/04/03 01:21:38;;;;;;;2.30;1.90;;;7.10;99.90;;;;;;4145735;28;20474;-62
2023/04/03 01:23:45;;;;;;;3.27;2.23;;;7.10;99.90;;;;;;4147043;28;20025;-66
2023/04/03 01:25:51;;;;;;;1.83;1.70;;;7.10;99.90;;;;;;4160374;28;20022;-65
2023/04/03 01:27:52;;;;;;;2.23;1.90;;;7.10;99.90;;;;;;4143952;28;20026;-61
2023/04/03 01:29:54;;;;;;;2.27;1.77;;;7.00;99.90;;;;;;4145836;28;20084;-64
2023/04/03 01:32:04;;;;;;;2.17;1.53;;;7.00;99.90;;;;;;4144254;28;20072;-61
2023/04/03 01:34:06;;;;;;;2.30;1.98;;;7.00;99.90;;;;;;4146385;28;20072;-61
2023/04/03 01:36:08;;;;;;;2.13;1.70;;;7.00;99.90;;;;;;4142058;28;20026;-62
2023/04/03 01:38:10;;;;;;;2.23;2.03;;;7.00;99.90;;;;;;4155836;28;20029;-62
2023/04/03 01:40:11;;;;;;;2.47;1.80;;;7.00;99.90;;;;;;4160433;28;20547;-61
2023/04/03 01:42:12;;;;;;;2.30;2.00;;;7.00;99.90;;;;;;4159590;28;20029;-61
2023/04/03 01:44:14;;;;;;;1.97;1.77;;;7.00;99.90;;;;;;4160611;28;20092;-63
2023/04/03 01:46:16;;;;;;;3.43;2.50;;;7.00;99.90;;;;;;4160804;28;20041;-60
2023/04/03 01:48:17;;;;;;;2.50;2.00;;;6.90;99.90;;;;;;4152560;28;20026;-61
2023/04/03 01:50:18;;;;;;;3.93;2.10;;;6.90;99.90;;;;;;4143836;28;20042;-62
2023/04/03 01:52:19;;;;;;;2.93;2.10;;;6.90;99.90;;;;;;4144890;28;20088;-61
2023/04/03 01:54:21;;;;;;;2.20;1.90;;;6.90;99.90;;;;;;4150103;28;20539;-61
2023/04/03 01:56:22;;;;;;;2.53;2.20;;;6.90;99.90;;;;;;4156176;28;20072;-61
2023/04/03 01:58:23;;;;;;;2.27;2.00;;;6.90;99.90;;;;;;4143666;28;20052;-60
2023/04/03 02:00:26;;;;;;;2.77;2.20;;;6.80;99.90;;;;;;4145668;28;20046;-61
2023/04/03 02:02:27;;;;;;;2.73;1.87;;;6.80;99.90;;;;;;4143755;28;20026;-63
2023/04/03 02:04:28;;;;;;;4.83;2.43;;;6.80;99.90;;;;;;4149264;28;20088;-61
2023/04/03 02:06:29;;;;;;;3.50;2.10;;;6.80;99.90;;;;;;4145423;28;20038;-62
2023/04/03 02:08:30;;;;;;;1.97;1.77;;;6.80;99.90;;;;;;4143279;28;20123;-62
2023/04/03 02:10:31;;;;;;;2.87;2.33;;;6.80;99.90;;;;;;4146694;28;20037;-62
2023/04/03 02:12:33;;;;;;;3.00;2.10;;;6.80;99.90;;;;;;4153827;28;20033;-62
2023/04/03 02:14:34;;;;;;;3.40;1.70;;;6.70;99.90;;;;;;4143491;28;20085;-62
2023/04/03 02:16:35;;;;;;;2.73;1.93;;;6.70;99.90;;;;;;4144118;28;20107;-63
2023/04/03 02:18:37;;;;;;;2.87;2.13;;;6.70;99.90;;;;;;4144217;28;20030;-63
2023/04/03 02:20:38;;;;;;;2.60;2.20;;;6.60;99.90;;;;;;4143638;28;20486;-62
2023/04/03 02:22:39;;;;;;;3.73;2.37;;;6.60;99.90;;;;;;4143935;28;20037;-61
2023/04/03 02:24:41;;;;;;;3.17;2.43;;;6.60;99.90;;;;;;4145841;28;20178;-61
2023/04/03 02:26:42;;;;;;;4.43;2.60;;;6.50;99.90;;;;;;4159528;28;20029;-61
2023/04/03 02:28:43;;;;;;;3.23;2.50;;;6.50;99.90;;;;;;4145140;28;20556;-61
2023/04/03 02:30:44;;;;;;;4.27;2.10;;;6.50;99.90;;;;;;4145159;28;20556;-61
2023/04/03 02:32:46;;;;;;;5.27;2.67;;;6.50;99.90;;;;;;4143449;28;20437;-61
2023/04/03 02:34:47;;;;;;;3.90;2.30;;;6.40;99.90;;;;;;4145201;28;20081;-61
2023/04/03 02:36:48;;;;;;;3.17;2.07;;;6.40;99.90;;;;;;4143192;28;20453;-62
2023/04/03 02:38:49;;;;;;;4.70;3.03;;;6.40;99.90;;;;;;4154266;28;20111;-63
2023/04/03 02:40:51;;;;;;;4.93;2.70;;;6.30;99.90;;;;;;4157962;28;20083;-62
2023/04/03 02:42:52;;;;;;;3.87;2.53;;;6.30;99.90;;;;;;4151924;28;20045;-67
2023/04/03 02:44:53;;;;;;;5.27;2.70;;;6.30;99.90;;;;;;4142999;28;20046;-62
2023/04/03 02:46:54;;;;;;;5.13;3.40;;;6.20;99.90;;;;;;4144253;28;20038;-63
2023/04/03 02:48:55;;;;;;;4.30;2.47;;;6.20;99.90;;;;;;4143594;28;20018;-63
2023/04/03 02:50:57;;;;;;;5.20;3.13;;;6.20;99.90;;;;;;4144423;28;20545;-65
2023/04/03 02:52:58;;;;;;;5.63;2.40;;;6.10;99.90;;;;;;4149641;28;20076;-66
2023/04/03 02:54:59;;;;;;;5.67;3.50;;;6.10;99.90;;;;;;4149267;28;20506;-62
2023/04/03 02:57:01;;;;;;;4.53;2.93;;;6.10;99.90;;;;;;4145950;28;20038;-62
2023/04/03 02:59:02;;;;;;;5.43;2.70;;;6.00;99.90;;;;;;4153315;28;20026;-62
2023/04/03 03:01:03;;;;;;;2.70;2.30;;;6.00;99.90;;;;;;4144145;28;20038;-64
2023/04/03 03:03:04;;;;;;;4.20;2.90;;;5.90;99.90;;;;;;4143098;28;20037;-62
2023/04/03 03:05:07;;;;;;;5.40;2.73;;;5.90;99.90;;;;;;4145719;28;20037;-62
2023/04/03 03:07:08;;;;;;;4.00;3.10;;;5.90;99.90;;;;;;4143801;28;20046;-62
2023/04/03 03:09:09;;;;;;;5.47;3.10;;;5.90;99.90;;;;;;4146410;28;20153;-61
2023/04/03 03:11:11;;;;;;;5.43;2.60;;;5.90;99.90;;;;;;4154926;28;20083;-62
2023/04/03 03:13:12;;;;;;;6.10;3.63;;;5.80;99.90;;;;;;4144450;28;20046;-63
2023/04/03 03:15:13;;;;;;;4.20;2.87;;;5.80;99.90;;;;;;4143129;28;20030;-63
2023/04/03 03:17:14;;;;;;;3.97;2.70;;;5.70;99.90;;;;;;4144269;28;20034;-62
2023/04/03 03:19:16;;;;;;;3.90;2.87;;;5.70;99.90;;;;;;4136527;28;20541;-67
2023/04/03 03:21:17;;;;;;;3.43;2.70;;;5.70;99.90;;;;;;4143097;28;20495;-67
2023/04/03 03:23:18;;;;;;;5.47;3.20;;;5.60;99.90;;;;;;4156318;28;20080;-64
2023/04/03 03:25:19;;;;;;;3.93;2.67;;;5.60;99.90;;;;;;4159020;28;20099;-62
2023/04/03 03:27:20;;;;;;;4.37;2.67;;;5.60;99.90;;;;;;4147542;28;20437;-63
2023/04/03 03:29:21;;;;;;;4.23;3.10;;;5.50;99.90;;;;;;4151495;28;20030;-62
2023/04/03 03:31:23;;;;;;;3.90;2.87;;;5.50;99.90;;;;;;4147341;28;20045;-62
2023/04/03 03:33:25;;;;;;;4.73;3.53;;;5.50;99.90;;;;;;4142928;28;20037;-61
2023/04/03 03:35:26;;;;;;;5.70;3.30;;;5.50;99.90;;;;;;4153280;28;20037;-62
2023/04/03 03:37:27;;;;;;;4.83;3.37;;;5.50;99.90;;;;;;4145399;28;20387;-62
2023/04/03 03:39:29;;;;;;;5.57;3.23;;;5.50;99.90;;;;;;4147439;28;20088;-62
2023/04/03 03:41:30;;;;;;;4.87;3.47;;;5.50;99.90;;;;;;4148268;28;20457;-63
2023/04/03 03:43:31;;;;;;;4.20;2.97;;;5.50;99.90;;;;;;4156586;28;20375;-63
2023/04/03 03:45:33;;;;;;;5.23;3.30;;;5.50;99.90;;;;;;4145741;28;20087;-62
2023/04/03 03:47:34;;;;;;;4.87;3.60;;;5.50;99.90;;;;;;4146942;28;20049;-68
2023/04/03 03:49:35;;;;;;;6.43;4.20;;;5.50;99.90;;;;;;4145765;28;20445;-61
2023/04/03 03:51:37;;;;;;;5.10;3.50;;;5.50;99.90;;;;;;4156507;28;20099;-64
2023/04/03 03:53:38;;;;;;;5.93;3.50;;;5.40;99.90;;;;;;4160806;28;20025;-62
2023/04/03 03:55:39;;;;;;;4.60;3.37;;;5.50;99.90;;;;;;4155977;28;20033;-62
2023/04/03 03:57:40;;;;;;;5.40;3.53;;;5.50;99.90;;;;;;4153580;28;20022;-62
2023/04/03 03:59:42;;;;;;;5.43;3.20;;;5.50;99.90;;;;;;4145367;28;20088;-62
2023/04/03 04:01:43;;;;;;;4.67;3.03;;;5.50;99.90;;;;;;4154682;28;20041;-62
2023/04/03 04:03:44;;;;;;;4.73;3.37;;;5.50;99.90;;;;;;4152189;28;20076;-61
2023/04/03 04:05:46;;;;;;;6.80;3.33;;;5.50;99.90;;;;;;4146905;28;20095;-61
2023/04/03 04:07:47;;;;;;;5.53;2.83;;;5.40;99.90;;;;;;4145152;28;20117;-61
2023/04/03 04:09:48;;;;;;;4.57;3.33;;;5.40;99.90;;;;;;4147320;28;20461;-61
2023/04/03 04:11:49;;;;;;;5.90;3.27;;;5.40;99.90;;;;;;4147677;28;20081;-61
2023/04/03 04:13:50;;;;;;;5.00;3.60;;;5.40;99.90;;;;;;4155551;28;20034;-62
2023/04/03 04:15:51;;;;;;;4.43;3.30;;;5.40;99.90;;;;;;4144758;28;20425;-61
2023/04/03 04:17:53;;;;;;;4.60;2.80;;;5.50;99.90;;;;;;4150264;28;20033;-65
2023/04/03 04:19:54;;;;;;;5.07;3.43;;;5.50;99.90;;;;;;4150861;28;20022;-62
2023/04/03 04:21:55;;;;;;;4.40;2.97;;;5.50;99.90;;;;;;4148323;28;20490;-61
2023/04/03 04:23:56;;;;;;;6.37;3.50;;;5.50;99.90;;;;;;4159137;28;20083;-65
2023/04/03 04:25:58;;;;;;;6.70;3.60;;;5.50;99.90;;;;;;4154364;28;20481;-62
2023/04/03 04:27:59;;;;;;;4.40;2.93;;;5.50;99.90;;;;;;4156679;28;20034;-60
2023/04/03 04:30:00;;;;;;;5.10;2.87;;;5.50;99.90;;;;;;4158075;28;20123;-61
2023/04/03 04:32:03;;;;;;;4.60;2.57;;;5.50;99.90;;;;;;4157721;28;20042;-61
2023/04/03 04:34:04;;;;;;;3.47;2.83;;;5.50;99.90;;;;;;4145782;28;20054;-61
2023/04/03 04:36:05;;;;;;;3.77;2.53;;;5.60;99.90;;;;;;4156982;28;20422;-62
2023/04/03 04:38:08;;;;;;;4.20;3.40;;;5.60;99.90;;;;;;4144919;28;20259;-61
2023/04/03 04:40:09;;;;;;;5.07;3.00;;;5.60;99.90;;;;;;4146163;28;20087;-64
2023/04/03 04:42:12;;;;;;;4.03;2.73;;;5.60;99.90;;;;;;4144253;28;20457;-63
2023/04/03 04:44:13;;;;;;;3.90;3.30;;;5.70;99.90;;;;;;4146821;28;20046;-61
2023/04/03 04:46:15;;;;;;;5.33;2.90;;;5.70;99.90;;;;;;4153167;28;20099;-61
2023/04/03 04:48:16;;;;;;;4.40;3.30;;;5.70;99.90;;;;;;4145707;28;20061;-63
2023/04/03 04:50:17;;;;;;;4.73;2.60;;;5.70;99.90;;;;;;4144486;28;20042;-61
2023/04/03 04:52:18;;;;;;;4.40;2.70;;;5.70;99.90;;;;;;4154411;28;20087;-61
2023/04/03 04:54:19;;;;;;;3.57;2.63;;;5.70;99.90;;;;;;4152386;28;20443;-62
2023/04/03 04:56:20;;;;;;;3.90;3.17;;;5.70;99.90;;;;;;4148740;28;20100;-62
2023/04/03 04:58:21;;;;;;;3.23;2.93;;;5.70;99.90;;;;;;4152899;28;20014;-63
2023/04/03 05:00:23;;;;;;;6.40;2.97;;;5.70;99.90;;;;;;4143570;28;20556;-61
2023/04/03 05:02:24;;;;;;;3.13;2.57;;;5.70;99.90;;;;;;4145897;28;21401;-60
2023/04/03 05:04:25;;;;;;;4.00;2.70;;;5.70;99.90;;;;;;4144429;28;20092;-60
2023/04/03 05:06:26;;;;;;;4.40;2.90;;;5.60;99.90;;;;;;4145593;28;20084;-61
2023/04/03 05:08:27;;;;;;;5.00;2.77;;;5.60;99.90;;;;;;4144086;28;20576;-61
2023/04/03 05:10:29;;;;;;;4.33;2.53;;;5.70;99.90;;;;;;4145470;28;20095;-61
2023/04/03 05:12:32;;;;;;;4.43;2.90;;;5.70;99.90;;;;;;4144160;28;20477;-65
2023/04/03 05:14:33;;;;;;;4.37;2.73;;;5.70;99.90;;;;;;4145377;28;20390;-61
2023/04/03 05:16:34;;;;;;;4.73;2.83;;;5.70;99.90;;;;;;4144349;28;20137;-61
2023/04/03 05:18:35;;;;;;;4.17;2.83;;;5.80;99.90;;;;;;4144156;28;20030;-63
2023/04/03 05:20:36;;;;;;;5.93;3.20;;;5.90;99.90;;;;;;4143988;28;20553;-59
2023/04/03 05:22:38;;;;;;;4.13;3.23;;;6.00;99.90;;;;;;4145023;28;20104;-61
2023/04/03 05:24:39;;;;;;;4.73;2.80;;;6.00;99.90;;;;;;4144856;28;20052;-62
2023/04/03 05:26:41;;;;;;;4.00;2.70;;;6.10;99.90;;;;;;4144515;28;20422;-62
2023/04/03 05:28:42;;;;;;;4.30;2.77;;;6.10;99.90;;;;;;4144607;28;20037;-62
2023/04/03 05:30:43;;;;;;;3.60;2.80;;;6.30;99.90;;;;;;4143931;28;20049;-61
2023/04/03 05:32:45;;;;;;;6.53;3.07;;;6.50;99.90;;;;;;4145390;28;20037;-60
2023/04/03 05:34:46;;;;;;;3.50;2.77;;;6.70;99.90;;;;;;4143933;28;20049;-62
2023/04/03 05:36:47;;;;;;;5.83;2.97;;;6.90;99.90;;;;;;4143932;28;20041;-62
2023/04/03 05:38:48;;;;;;;6.30;2.97;;;7.20;99.90;;;;;;4143834;28;20030;-61
2023/04/03 05:40:49;;;;;;;5.70;3.47;;;7.30;99.90;;;;;;4145445;28;20076;-61
2023/04/03 05:42:51;;;;;;;6.40;3.40;;;7.40;99.90;;;;;;4143760;28;20099;-61
2023/04/03 05:44:52;;;;;;;4.93;3.07;;;7.30;99.90;;;;;;4144894;28;20034;-62
2023/04/03 05:46:53;;;;;;;4.13;3.13;;;7.30;99.90;;;;;;4143569;28;20494;-65
2023/04/03 05:48:54;;;;;;;4.57;3.20;;;7.30;99.90;;;;;;4145036;28;20471;-62
2023/04/03 05:50:56;;;;;;;6.17;4.00;;;7.20;99.90;;;;;;4143558;28;20041;-62
2023/04/03 05:52:58;;;;;;;5.67;3.40;;;7.10;99.90;;;;;;4144621;28;20041;-67
2023/04/03 05:55:00;;;;;;;5.43;2.57;;;7.20;99.90;;;;;;4144106;28;20021;-62
2023/04/03 05:57:01;;;;;;;11.83;5.97;;;7.20;99.90;;;;;;4142527;28;20038;-62
2023/04/03 05:59:04;;;;;;;4.13;3.00;;;7.20;99.90;;;;;;4144624;28;20029;-62
2023/04/03 06:01:05;;;;;;;5.00;3.17;;;7.10;99.90;;;;;;4143702;28;20029;-62
2023/04/03 06:03:06;;;;;;;4.23;3.13;;;7.10;99.90;;;;;;4144548;28;20612;-62
2023/04/03 06:05:09;;;;;;;10.17;3.10;;;7.00;99.90;;;;;;4143421;28;20053;-62
2023/04/03 06:07:19;;;;;;;4.90;3.20;;;7.00;99.90;;;;;;4144998;28;20030;-61
2023/04/03 06:09:23;;;;;;;5.22;2.83;;;7.00;99.90;;;;;;4143388;28;20413;-61
2023/04/03 06:11:24;;;;;;;3.57;2.90;;;7.00;99.90;;;;;;4145241;28;20080;-61
2023/04/03 06:13:25;;;;;;;5.07;3.10;;;7.00;99.90;;;;;;4143392;28;20557;-61
2023/04/03 06:15:27;;;;;;;6.17;3.03;;;7.00;99.90;;;;;;4144922;28;20084;-61
2023/04/03 06:17:29;;;;;;;3.37;2.60;;;7.10;99.90;;;;;;4143140;28;20033;-62
2023/04/03 06:19:30;;;;;;;4.93;2.63;;;7.00;99.90;;;;;;4144752;28;20037;-61
2023/04/03 06:21:32;;;;;;;4.93;2.93;;;7.00;99.90;;;;;;4143154;28;20026;-60
2023/04/03 06:23:33;;;;;;;3.70;2.70;;;7.10;99.90;;;;;;4144835;28;20022;-62
2023/04/03 06:25:35;;;;;;;4.60;2.70;;;7.10;99.90;;;;;;4143233;28;20548;-69
2023/04/03 06:27:36;;;;;;;4.93;3.77;;;7.10;99.90;;;;;;4144424;28;20096;-63
2023/04/03 06:29:37;;;;;;;5.63;2.80;;;7.20;99.90;;;;;;4143470;28;20042;-62
2023/04/03 06:31:39;;;;;;;4.20;2.70;;;7.20;99.90;;;;;;4143624;28;20882;-61
2023/04/03 06:33:40;;;;;;;3.13;2.83;;;7.10;99.90;;;;;;4144231;28;20479;-63
2023/04/03 06:35:41;;;;;;;5.23;2.70;;;7.10;99.90;;;;;;4143690;28;20026;-64
2023/04/03 06:37:43;;;;;;;5.33;3.00;;;7.00;99.90;;;;;;4144808;28;20018;-62
2023/04/03 06:39:45;;;;;;;4.33;2.67;;;7.10;99.90;;;;;;4143124;28;20096;-62
2023/04/03 06:41:46;;;;;;;2.77;2.50;;;7.10;99.90;;;;;;4144741;28;20034;-63
2023/04/03 06:43:48;;;;;;;1.83;1.70;;;7.00;99.90;;;;;;4143061;28;20033;-60
2023/04/03 06:45:49;;;;;;;2.87;1.90;;;7.00;99.90;;;;;;4144358;28;20042;-61
2023/04/03 06:47:50;;;;;;;3.30;2.40;;;6.90;99.90;;;;;;4142955;28;20029;-62
2023/04/03 06:49:51;;;;;;;6.40;2.27;;;6.90;99.90;;;;;;4144381;28;20084;-61
2023/04/03 06:51:52;;;;;;;2.47;2.23;;;6.90;99.90;;;;;;4142897;28;20327;-62
2023/04/03 06:53:56;;;;;;;2.57;2.00;;;6.90;99.90;;;;;;4144247;28;20103;-68
2023/04/03 06:55:57;;;;;;;3.03;2.17;;;6.90;99.90;;;;;;4142981;28;20466;-61
2023/04/03 06:57:58;;;;;;;3.70;1.80;;;7.00;99.90;;;;;;4144018;28;20034;-62
2023/04/03 06:59:59;;;;;;;1.90;1.63;;;7.00;99.90;;;;;;4143433;28;20478;-63
2023/04/03 07:02:01;;;;;;;3.03;2.20;;;7.10;99.90;;;;;;4143121;28;20046;-67
2023/04/03 07:04:02;;;;;;;6.20;2.20;;;7.00;99.90;;;;;;4144022;28;20490;-62
2023/04/03 07:06:05;;;;;;;2.20;1.97;;;7.00;99.90;;;;;;4143014;28;20037;-62
2023/04/03 07:08:06;;;;;;;2.53;2.17;;;7.00;99.90;;;;;;4144148;28;20454;-65
2023/04/03 07:10:08;;;;;;;3.07;2.20;;;7.00;99.90;;;;;;4146342;28;20459;-64
2023/04/03 07:12:09;;;;;;;4.63;1.83;;;7.10;99.90;;;;;;4147254;28;20479;-63
2023/04/03 07:14:11;;;;;;;7.20;2.27;;;7.10;99.90;;;;;;4144527;28;20029;-63
2023/04/03 07:16:12;;;;;;;1.77;1.63;;;7.20;99.90;;;;;;4147719;28;20053;-62
2023/04/03 07:18:13;;;;;;;2.40;2.13;;;7.30;99.90;;;;;;4146135;28;20022;-65
2023/04/03 07:20:15;;;;;;;4.63;2.20;;;7.30;99.90;;;;;;4147457;28;20474;-62
2023/04/03 07:22:16;;;;;;;3.10;2.10;;;7.40;99.90;;;;;;4146145;28;20487;-62
2023/04/03 07:24:17;;;;;;;2.80;2.00;;;7.50;99.90;;;;;;4147634;28;20018;-62
2023/04/03 07:26:20;;;;;;;2.63;2.03;;;7.60;99.90;;;;;;4145896;28;20638;-65
2023/04/03 07:28:22;;;;;;;2.23;1.73;;;7.70;99.90;;;;;;4147229;28;20053;-64
2023/04/03 07:30:23;;;;;;;3.57;1.80;;;7.70;99.90;;;;;;4146108;28;20426;-65
2023/04/03 07:32:25;;;;;;;3.77;1.90;;;7.80;99.90;;;;;;4145416;28;20034;-65
2023/04/03 07:34:26;;;;;;;1.73;1.63;;;7.80;99.90;;;;;;4146658;28;20093;-63
2023/04/03 07:36:27;;;;;;;3.90;1.93;;;8.00;99.90;;;;;;4145772;28;20029;-61
2023/04/03 07:38:29;;;;;;;3.60;2.03;;;8.00;99.90;;;;;;4146914;28;20410;-66
2023/04/03 07:40:30;;;;;;;3.10;2.10;;;8.10;99.90;;;;;;4145568;28;20049;-64
2023/04/03 07:42:31;;;;;;;2.40;1.70;;;8.10;99.90;;;;;;4146753;28;20030;-64
2023/04/03 07:44:32;;;;;;;4.40;1.47;;;8.20;99.90;;;;;;4145188;28;20030;-66
2023/04/03 07:46:34;;;;;;;2.67;1.87;;;8.20;99.90;;;;;;4146557;28;20100;-68
2023/04/03 07:48:35;;;;;;;2.77;1.70;;;8.10;99.90;;;;;;4143875;28;20181;-66
2023/04/03 07:50:36;;;;;;;2.20;2.00;;;8.10;99.90;;;;;;4146790;28;20482;-61
2023/04/03 07:52:37;;;;;;;2.23;1.80;;;8.10;99.90;;;;;;4145033;28;20425;-61
2023/04/03 07:54:39;;;;;;;2.83;2.03;;;8.10;99.90;;;;;;4146642;28;20085;-62
2023/04/03 07:56:42;;;;;;;2.97;1.93;;;8.20;99.90;;;;;;4145460;28;20520;-61
2023/04/03 07:58:43;;;;;;;3.57;1.93;;;8.20;99.90;;;;;;4146573;28;20030;-68
2023/04/03 08:00:45;;;;;;;3.03;2.00;;;8.30;99.90;;;;;;4145801;28;20053;-62
2023/04/03 08:02:50;;;;;;;5.00;1.70;;;8.40;99.90;;;;;;4145757;28;20045;-61
2023/04/03 08:04:51;;;;;;;1.90;1.70;;;8.50;99.90;;;;;;4146352;28;20030;-62
2023/04/03 08:06:52;;;;;;;2.17;1.80;;;8.50;99.90;;;;;;4144857;28;20104;-65
2023/04/03 08:08:53;;;;;;;2.70;1.70;;;8.40;99.90;;;;;;4146140;28;20494;-64
2023/04/03 08:10:55;;;;;;;2.63;2.00;;;8.40;99.90;;;;;;4144844;28;20037;-61
2023/04/03 08:12:56;;;;;;;3.63;1.90;;;8.60;99.90;;;;;;4144477;28;20038;-61
2023/04/03 08:14:59;;;;;;;2.03;1.57;;;8.70;99.90;;;;;;4145087;28;20127;-62
2023/04/03 08:17:00;;;;;;;2.77;2.07;;;8.70;99.90;;;;;;4144772;28;20042;-61
2023/04/03 08:19:02;;;;;;;2.80;2.10;;;8.80;99.90;;;;;;4144339;28;20084;-61
2023/04/03 08:21:07;;;;;;;2.10;1.90;;;8.80;99.90;;;;;;4145248;28;20141;-60
2023/04/03 08:23:10;;;;;;;2.30;1.77;;;8.90;99.90;;;;;;4144324;28;20034;-67
2023/04/03 08:25:11;;;;;;;2.23;1.80;;;9.10;99.90;;;;;;4146309;28;20564;-61
2023/04/03 08:27:12;;;;;;;3.43;1.77;;;9.20;99.90;;;;;;4144833;28;20437;-60
2023/04/03 08:29:13;;;;;;;6.93;2.03;;;9.30;99.90;;;;;;4145978;28;20425;-66
2023/04/03 08:31:18;;;;;;;3.37;1.73;;;9.30;99.90;;;;;;4145261;28;20084;-61
2023/04/03 08:33:19;;;;;;;5.13;2.50;;;9.30;99.90;;;;;;4145506;28;20069;-62
2023/04/03 08:35:20;;;;;;;3.53;1.77;;;9.20;99.90;;;;;;4144195;28;20120;-61
2023/04/03 08:37:21;;;;;;;2.40;1.57;;;9.20;99.90;;;;;;4144777;28;20434;-62
2023/04/03 08:39:23;;;;;;;2.30;1.23;;;9.20;99.90;;;;;;4145412;28;20030;-62
2023/04/03 08:41:32;;;;;;;1.67;1.47;;;9.20;99.90;;;;;;4144505;28;20041;-61
2023/04/03 08:44:04;;;;;;;1.43;1.27;;;9.20;99.90;;;;;;4145842;28;20037;-61
2023/04/03 08:46:11;;;;;;;1.67;1.57;;;9.20;99.90;;;;;;4144605;28;20042;-62
2023/04/03 08:48:39;;;;;;;4.43;1.70;;;9.20;99.90;;;;;;4143728;28;20080;-60
2023/04/03 08:50:43;;;;;;;3.00;1.70;;;9.40;99.90;;;;;;4144791;28;20061;-61
2023/04/03 08:52:48;;;;;;;2.70;2.00;;;9.40;99.90;;;;;;4145146;28;20072;-62
2023/04/03 08:55:00;;;;;;;3.20;1.43;;;9.50;99.90;;;;;;4144058;28;20042;-62
2023/04/03 08:57:06;;;;;;;2.47;1.20;;;9.70;99.90;;;;;;4145314;28;20080;-61
2023/04/03 08:59:13;;;;;;;1.87;1.70;;;9.80;99.90;;;;;;4143798;28;20053;-63
2023/04/03 09:01:26;;;;;;;3.70;2.77;;;9.80;99.90;;;;;;4144832;28;20092;-61
2023/04/03 09:03:31;;;;;;;2.13;1.60;;;9.90;99.90;;;;;;4144468;28;20466;-61
2023/04/03 09:05:38;;;;;;;2.50;1.87;;;10.00;99.90;;;;;;4145283;28;20045;-63
2023/04/03 09:07:47;;;;;;;4.13;1.90;;;10.00;99.90;;;;;;4142473;28;20037;-62
2023/04/03 09:09:50;;;;;;;2.00;1.30;;;10.00;99.90;;;;;;4145105;28;20524;-62
2023/04/03 09:12:13;;;;;;;7.50;2.37;;;10.10;99.90;;;;;;4143378;28;20054;-61
2023/04/03 09:14:38;;;;;;;5.83;2.10;;;10.30;99.90;;;;;;4144893;28;20521;-62
2023/04/03 09:16:58;;;;;;;3.83;1.50;;;10.60;99.90;;;;;;4144113;28;20475;-63
2023/04/03 09:19:34;;;;;;;3.73;1.47;;;10.80;99.90;;;;;;4144587;28;20053;-62
2023/04/03 09:21:42;;;;;;;2.30;1.27;;;11.00;99.90;;;;;;4144136;28;20545;-62
2023/04/03 09:23:47;;;;;;;1.93;1.30;;;11.10;99.90;;;;;;4144421;28;20026;-62
2023/04/03 09:25:53;;;;;;;1.97;1.37;;;11.20;99.90;;;;;;4144596;28;20038;-61
2023/04/03 09:27:54;;;;;;;1.97;1.50;;;11.10;99.90;;;;;;4144624;28;20034;-64
2023/04/03 09:29:57;;;;;;;1.40;1.30;;;10.90;99.90;;;;;;4144075;28;20584;-62
2023/04/03 09:32:15;;;;;;;2.47;1.60;;;10.70;99.90;;;;;;4143836;28;20038;-62
2023/04/03 09:34:37;;;;;;;2.13;1.30;;;10.60;99.90;;;;;;4143709;28;20034;-61
2023/04/03 09:36:46;;;;;;;1.47;1.23;;;10.50;99.90;;;;;;4144553;28;20022;-61
2023/04/03 09:39:40;;;;;;;1.40;1.30;;;10.40;99.90;;;;;;4143597;28;20034;-63
2023/04/03 09:41:55;;;;;;;2.00;1.20;;;10.10;99.90;;;;;;4077968;29;20533;-67
2023/04/03 09:43:56;;;;;;;1.73;1.20;;;9.80;99.90;;;;;;4077978;29;20032;-61
2023/04/03 09:46:17;;;;;;;2.40;1.70;;;9.70;99.90;;;;;;4080870;28;20039;-63
2023/04/03 09:48:27;;;;;;;1.33;1.13;;;9.50;99.90;;;;;;4144086;28;20449;-63
2023/04/03 09:50:29;;;;;;;2.03;1.60;;;9.50;99.90;;;;;;4143847;28;20029;-62
2023/04/03 09:52:31;;;;;;;2.87;1.50;;;9.40;99.90;;;;;;4143620;28;20548;-62
2023/04/03 09:54:40;;;;;;;1.50;1.37;;;9.40;99.90;;;;;;4142308;28;20038;-62
2023/04/03 09:56:50;;;;;;;2.17;1.57;;;9.40;99.90;;;;;;4143922;28;20026;-61
2023/04/03 09:59:12;;;;;;;2.70;1.40;;;9.30;99.90;;;;;;4144069;28;20439;-61
2023/04/03 10:01:31;;;;;;;3.50;1.73;;;9.30;99.90;;;;;;4143545;28;20022;-61
2023/04/03 10:03:35;;;;;;;1.50;1.20;;;9.40;99.90;;;;;;4143261;28;20033;-61
2023/04/03 10:05:38;;;;;;;2.83;1.13;;;9.40;99.90;;;;;;4144075;28;20522;-63
2023/04/03 10:07:40;;;;;;;2.03;1.30;;;9.40;99.90;;;;;;4142040;28;20077;-61
2023/04/03 10:09:58;;;;;;;2.07;1.37;;;9.40;99.90;;;;;;4143759;28;20038;-61
2023/04/03 10:12:08;;;;;;;3.10;1.80;;;9.30;99.90;;;;;;4143395;28;20096;-61
2023/04/03 10:14:16;;;;;;;2.30;1.13;;;9.30;99.90;;;;;;4143165;28;20449;-61
2023/04/03 10:16:34;;;;;;;3.70;1.57;;;9.30;99.90;;;;;;4143733;28;20483;-65
2023/04/03 10:18:56;;;;;;;1.90;1.43;;;9.30;99.90;;;;;;4143279;28;20030;-61
2023/04/03 10:21:06;;;;;;;2.47;2.27;;;9.30;99.90;;;;;;4143374;28;20101;-65
2023/04/03 10:23:30;;;;;;;2.85;2.20;;;9.30;99.90;;;;;;4143351;28;20060;-62
2023/04/03 10:25:49;;;;;;;3.23;1.70;;;9.20;99.90;;;;;;4143298;28;20044;-62
2023/04/03 10:28:27;;;;;;;2.20;1.53;;;9.20;99.90;;;;;;4143653;28;20490;-61
2023/04/03 10:30:51;;;;;;;7.97;2.37;;;9.30;99.90;;;;;;4143195;28;20405;-62
2023/04/03 10:33:00;;;;;;;7.93;5.87;;;9.40;99.90;;;;;;4143283;28;20963;-64
2023/04/03 10:35:10;;;;;;;8.35;6.32;;;9.50;99.90;;;;;;4143679;28;20042;-62
2023/04/03 10:37:21;;;;;;;3.05;2.80;;;9.50;99.90;;;;;;4143676;28;20547;-62
2023/04/03 10:39:49;;;;;;;3.90;2.30;;;9.60;99.90;;;;;;4142777;28;20041;-63
2023/04/03 10:42:02;;;;;;;3.00;1.90;;;9.60;99.90;;;;;;4143011;28;20076;-62
2023/04/03 10:44:26;;;;;;;4.37;1.50;;;9.60;99.90;;;;;;4142435;28;20444;-62
2023/04/03 10:46:50;;;;;;;2.03;1.40;;;9.40;99.90;;;;;;4143140;28;20096;-66
2023/04/03 10:48:57;;;;;;;2.33;1.67;;;9.10;99.90;;;;;;4143254;28;20071;-65
2023/04/03 10:51:33;;;;;;;2.83;1.50;;;8.90;99.90;;;;;;4141613;28;20092;-62
2023/04/03 10:54:01;;;;;;;2.90;1.77;;;8.60;99.90;;;;;;4112156;28;20038;-62